createdAt,value
2018-12-07T00:00:17.301Z,10.90
2018-12-07T00:01:17.313Z,10.90
2018-12-07T00:02:17.338Z,11.30
2018-12-07T00:03:17.354Z,10.30
2018-12-07T00:04:17.380Z,10.50
2018-12-07T00:05:17.379Z,10.70
2018-12-07T00:06:17.393Z,9.60
2018-12-07T00:07:17.420Z,10.30
2018-12-07T00:08:17.432Z,9.80
2018-12-07T00:09:17.445Z,9.90
2018-12-07T00:10:17.472Z,9.90
2018-12-07T00:11:17.485Z,9.10
2018-12-07T00:12:17.499Z,9.40
2018-12-07T00:13:17.512Z,9.30
2018-12-07T00:14:17.526Z,10.00
2018-12-07T00:15:17.551Z,9.30
2018-12-07T00:16:17.566Z,9.10
2018-12-07T00:17:17.578Z,9.90
2018-12-07T00:18:17.600Z,9.50
2018-12-07T00:19:17.605Z,9.80
2018-12-07T00:20:17.635Z,9.70
2018-12-07T00:21:17.645Z,9.90
2018-12-07T00:22:17.657Z,9.30
2018-12-07T00:23:17.672Z,9.50
2018-12-07T00:24:17.698Z,9.40
2018-12-07T00:25:17.714Z,10.10
2018-12-07T00:26:17.725Z,9.60
2018-12-07T00:27:17.738Z,9.00
2018-12-07T00:28:17.766Z,9.70
2018-12-07T00:29:17.778Z,9.30
2018-12-07T00:30:17.803Z,9.00
2018-12-07T00:31:17.804Z,9.10
2018-12-07T00:32:17.819Z,9.80
2018-12-07T00:33:17.858Z,9.00
2018-12-07T00:34:17.858Z,9.10
2018-12-07T00:35:17.870Z,9.10
2018-12-07T00:36:17.884Z,9.00
2018-12-07T00:37:17.911Z,9.90
2018-12-07T00:38:17.923Z,8.90
2018-12-07T00:39:17.937Z,9.10
2018-12-07T00:40:17.951Z,9.10
2018-12-07T00:41:17.977Z,9.10
2018-12-07T00:42:17.990Z,8.90
2018-12-07T00:43:18.003Z,8.90
2018-12-07T00:44:18.055Z,8.90
2018-12-07T00:45:18.044Z,9.40
2018-12-07T00:46:18.056Z,8.70
2018-12-07T00:47:18.072Z,9.20
2018-12-07T00:48:18.084Z,8.60
2018-12-07T00:49:18.110Z,8.90
2018-12-07T00:50:18.124Z,9.70
2018-12-07T00:51:18.139Z,9.40
2018-12-07T00:52:18.150Z,8.20
2018-12-07T00:53:18.176Z,9.00
2018-12-07T00:54:18.189Z,8.40
2018-12-07T00:55:18.203Z,8.60
2018-12-07T00:56:18.216Z,8.50
2018-12-07T00:57:18.242Z,9.40
2018-12-07T00:58:18.259Z,9.00
2018-12-07T00:59:18.270Z,9.00
2018-12-07T01:00:18.284Z,9.10
2018-12-07T01:01:18.299Z,8.80
2018-12-07T01:02:18.325Z,8.50
2018-12-07T01:03:18.336Z,9.20
2018-12-07T01:04:18.349Z,9.40
2018-12-07T01:05:18.363Z,8.60
2018-12-07T01:06:18.390Z,8.60
2018-12-07T01:07:18.401Z,9.30
2018-12-07T01:08:18.416Z,8.80
2018-12-07T01:09:18.430Z,8.30
2018-12-07T01:10:18.454Z,8.50
2018-12-07T01:11:18.469Z,9.30
2018-12-07T01:12:18.482Z,8.20
2018-12-07T01:13:18.496Z,8.30
2018-12-07T01:14:18.522Z,8.10
2018-12-07T01:15:18.535Z,8.50
2018-12-07T01:16:18.552Z,9.20
2018-12-07T01:17:18.562Z,8.20
2018-12-07T01:18:18.587Z,9.20
2018-12-07T01:19:18.604Z,8.00
2018-12-07T01:20:18.614Z,7.80
2018-12-07T01:21:18.629Z,7.50
2018-12-07T01:22:18.654Z,7.90
2018-12-07T01:23:18.667Z,8.30
2018-12-07T01:24:18.685Z,7.50
2018-12-07T01:25:18.696Z,8.10
2018-12-07T01:26:18.809Z,7.60
2018-12-07T01:27:18.735Z,8.10
2018-12-07T01:28:18.748Z,7.00
2018-12-07T01:29:18.773Z,7.90
2018-12-07T01:30:18.788Z,8.10
2018-12-07T01:31:18.802Z,8.20
2018-12-07T01:32:18.815Z,8.10
2018-12-07T01:33:18.840Z,7.40
2018-12-07T01:34:18.854Z,7.00
2018-12-07T01:35:18.868Z,7.40
2018-12-07T01:36:18.880Z,7.20
2018-12-07T01:37:18.907Z,7.50
2018-12-07T01:38:18.920Z,7.10
2018-12-07T01:39:18.934Z,7.80
2018-12-07T01:40:18.951Z,7.40
2018-12-07T01:41:18.973Z,7.70
2018-12-07T01:42:18.986Z,7.40
2018-12-07T01:43:19.000Z,7.20
2018-12-07T01:44:19.026Z,6.90
2018-12-07T01:45:19.038Z,7.80
2018-12-07T01:46:19.057Z,7.10
2018-12-07T01:47:19.066Z,7.00
2018-12-07T01:48:19.091Z,7.20
2018-12-07T01:49:19.108Z,7.20
2018-12-07T01:50:19.118Z,6.80
2018-12-07T01:51:19.132Z,7.20
2018-12-07T01:52:19.158Z,7.00
2018-12-07T01:53:19.171Z,7.60
2018-12-07T01:54:19.187Z,8.10
2018-12-07T01:55:19.200Z,7.90
2018-12-07T01:56:19.224Z,7.40
2018-12-07T01:57:19.237Z,7.70
2018-12-07T01:58:19.251Z,8.10
2018-12-07T01:59:19.265Z,7.80
2018-12-07T02:00:19.291Z,7.50
2018-12-07T02:01:19.304Z,7.60
2018-12-07T02:02:19.318Z,7.40
2018-12-07T02:03:19.335Z,7.30
2018-12-07T02:04:19.357Z,7.70
2018-12-07T02:05:19.371Z,7.10
2018-12-07T02:06:19.384Z,8.00
2018-12-07T02:07:19.423Z,7.40
2018-12-07T02:08:19.424Z,7.80
2018-12-07T02:09:19.436Z,7.40
2018-12-07T02:10:19.451Z,7.70
2018-12-07T02:11:19.477Z,7.90
2018-12-07T02:12:19.490Z,7.40
2018-12-07T02:13:19.507Z,7.90
2018-12-07T02:14:19.516Z,7.60
2018-12-07T02:15:19.542Z,7.60
2018-12-07T02:16:19.556Z,8.40
2018-12-07T02:17:19.571Z,8.70
2018-12-07T02:18:19.583Z,7.80
2018-12-07T02:19:19.610Z,8.50
2018-12-07T02:20:19.622Z,8.00
2018-12-07T02:21:19.637Z,7.30
2018-12-07T02:22:19.650Z,7.90
2018-12-07T02:23:19.676Z,7.70
2018-12-07T02:24:19.691Z,7.90
2018-12-07T02:25:19.702Z,7.40
2018-12-07T02:26:19.717Z,7.30
2018-12-07T02:27:19.743Z,7.40
2018-12-07T02:28:19.768Z,7.10
2018-12-07T02:29:19.770Z,7.40
2018-12-07T02:30:19.796Z,7.00
2018-12-07T02:31:19.809Z,7.10
2018-12-07T02:32:19.823Z,7.30
2018-12-07T02:33:19.839Z,7.30
2018-12-07T02:34:19.850Z,6.80
2018-12-07T02:35:19.877Z,7.50
2018-12-07T02:36:19.902Z,7.10
2018-12-07T02:37:19.902Z,7.00
2018-12-07T02:38:19.916Z,7.30
2018-12-07T02:39:19.943Z,7.10
2018-12-07T02:40:19.959Z,6.80
2018-12-07T02:41:19.968Z,7.10
2018-12-07T02:42:19.995Z,6.90
2018-12-07T02:43:20.010Z,6.90
2018-12-07T02:44:20.025Z,7.60
2018-12-07T02:45:20.037Z,7.10
2018-12-07T02:46:20.061Z,7.00
2018-12-07T02:47:20.082Z,7.80
2018-12-07T02:48:20.089Z,7.80
2018-12-07T02:49:20.100Z,7.20
2018-12-07T02:50:20.139Z,7.70
2018-12-07T02:51:20.141Z,8.40
2018-12-07T02:52:20.155Z,8.30
2018-12-07T02:53:20.170Z,8.30
2018-12-07T02:54:20.194Z,8.20
2018-12-07T02:55:20.207Z,8.80
2018-12-07T02:56:20.220Z,8.90
2018-12-07T02:57:20.234Z,8.60
2018-12-07T02:58:20.258Z,8.70
2018-12-07T02:59:20.277Z,8.30
2018-12-07T03:00:20.285Z,8.20
2018-12-07T03:01:20.300Z,10.00
2018-12-07T03:02:20.313Z,8.90
2018-12-07T03:03:20.401Z,8.40
2018-12-07T03:04:20.353Z,8.60
2018-12-07T03:05:20.372Z,8.80
2018-12-07T03:06:20.379Z,9.40
2018-12-07T03:07:20.406Z,9.50
2018-12-07T03:08:20.426Z,9.60
2018-12-07T03:09:20.432Z,9.10
2018-12-07T03:10:20.447Z,9.40
2018-12-07T03:11:20.471Z,9.40
2018-12-07T03:12:20.485Z,9.60
2018-12-07T03:13:20.503Z,9.60
2018-12-07T03:14:20.513Z,10.30
2018-12-07T03:15:20.526Z,10.00
2018-12-07T03:16:20.551Z,9.30
2018-12-07T03:17:20.565Z,10.00
2018-12-07T03:18:20.578Z,10.20
2018-12-07T03:19:20.592Z,9.90
2018-12-07T03:20:20.620Z,10.10
2018-12-07T03:21:20.632Z,10.10
2018-12-07T03:22:20.645Z,10.40
2018-12-07T03:23:20.671Z,10.90
2018-12-07T03:24:20.683Z,10.10
2018-12-07T03:25:20.704Z,11.20
2018-12-07T03:26:20.711Z,11.10
2018-12-07T03:27:20.725Z,11.00
2018-12-07T03:28:20.739Z,11.40
2018-12-07T03:29:20.764Z,11.00
2018-12-07T03:30:20.778Z,11.40
2018-12-07T03:31:20.792Z,11.10
2018-12-07T03:32:20.806Z,10.60
2018-12-07T03:33:20.844Z,12.30
2018-12-07T03:34:20.843Z,11.60
2018-12-07T03:35:20.860Z,11.60
2018-12-07T03:36:20.871Z,11.80
2018-12-07T03:37:20.896Z,11.50
2018-12-07T03:38:20.911Z,11.50
2018-12-07T03:39:20.933Z,12.40
2018-12-07T03:40:20.937Z,12.00
2018-12-07T03:41:20.963Z,11.80
2018-12-07T03:42:20.977Z,11.90
2018-12-07T03:43:20.991Z,12.50
2018-12-07T03:44:21.016Z,12.70
2018-12-07T03:45:21.018Z,11.50
2018-12-07T03:46:21.044Z,12.20
2018-12-07T03:47:21.056Z,12.10
2018-12-07T03:48:21.071Z,13.40
2018-12-07T03:49:21.084Z,12.70
2018-12-07T03:50:21.122Z,12.20
2018-12-07T03:51:21.123Z,12.10
2018-12-07T03:52:21.151Z,12.20
2018-12-07T03:53:21.150Z,12.30
2018-12-07T03:54:21.177Z,13.10
2018-12-07T03:55:21.193Z,12.90
2018-12-07T03:56:21.202Z,12.80
2018-12-07T03:57:21.216Z,12.60
2018-12-07T03:58:21.244Z,12.70
2018-12-07T03:59:21.256Z,12.70
2018-12-07T04:00:21.270Z,11.90
2018-12-07T04:01:21.283Z,12.50
2018-12-07T04:02:21.309Z,11.90
2018-12-07T04:03:21.321Z,12.10
2018-12-07T04:04:21.339Z,12.50
2018-12-07T04:05:21.348Z,12.90
2018-12-07T04:06:21.374Z,12.60
2018-12-07T04:07:21.390Z,11.70
2018-12-07T04:08:21.401Z,12.20
2018-12-07T04:09:21.415Z,12.50
2018-12-07T04:10:21.444Z,12.10
2018-12-07T04:11:21.455Z,11.70
2018-12-07T04:12:21.472Z,12.20
2018-12-07T04:13:21.494Z,12.10
2018-12-07T04:14:21.508Z,11.60
2018-12-07T04:15:21.521Z,11.70
2018-12-07T04:16:21.540Z,11.40
2018-12-07T04:17:21.548Z,11.80
2018-12-07T04:18:21.562Z,11.50
2018-12-07T04:19:21.588Z,12.10
2018-12-07T04:20:21.603Z,11.90
2018-12-07T04:21:21.627Z,11.70
2018-12-07T04:22:21.629Z,11.80
2018-12-07T04:23:21.654Z,11.50
2018-12-07T04:24:21.668Z,11.90
2018-12-07T04:25:21.685Z,11.40
2018-12-07T04:26:21.694Z,11.80
2018-12-07T04:27:21.721Z,12.10
2018-12-07T04:28:21.734Z,11.70
2018-12-07T04:29:21.747Z,12.30
2018-12-07T04:30:21.762Z,12.00
2018-12-07T04:31:21.788Z,13.00
2018-12-07T04:32:21.807Z,12.30
2018-12-07T04:33:21.815Z,12.10
2018-12-07T04:34:21.827Z,11.80
2018-12-07T04:35:21.852Z,12.00
2018-12-07T04:36:21.868Z,11.60
2018-12-07T04:37:21.881Z,11.60
2018-12-07T04:38:21.894Z,12.40
2018-12-07T04:39:21.923Z,12.20
2018-12-07T04:40:21.941Z,12.50
2018-12-07T04:41:21.950Z,12.00
2018-12-07T04:42:21.962Z,12.10
2018-12-07T04:43:21.986Z,11.60
2018-12-07T04:44:22.001Z,11.90
2018-12-07T04:45:22.013Z,11.50
2018-12-07T04:46:22.027Z,12.40
2018-12-07T04:47:22.052Z,11.40
2018-12-07T04:48:22.065Z,12.50
2018-12-07T04:49:22.081Z,11.40
2018-12-07T04:50:22.093Z,11.60
2018-12-07T04:51:22.123Z,12.10
2018-12-07T04:52:22.137Z,12.50
2018-12-07T04:53:22.146Z,12.00
2018-12-07T04:54:22.161Z,12.80
2018-12-07T04:55:22.193Z,11.90
2018-12-07T04:56:22.199Z,11.40
2018-12-07T04:57:22.214Z,12.40
2018-12-07T04:58:22.226Z,12.90
2018-12-07T04:59:22.253Z,12.30
2018-12-07T05:00:22.266Z,12.30
2018-12-07T05:01:22.278Z,12.60
2018-12-07T05:02:22.294Z,12.90
2018-12-07T05:03:22.318Z,13.30
2018-12-07T05:04:22.333Z,12.80
2018-12-07T05:05:22.347Z,12.10
2018-12-07T05:06:22.361Z,12.30
2018-12-07T05:07:22.384Z,12.20
2018-12-07T05:08:22.399Z,11.90
2018-12-07T05:09:22.424Z,12.80
2018-12-07T05:10:22.427Z,13.00
2018-12-07T05:11:22.451Z,13.20
2018-12-07T05:12:22.465Z,12.50
2018-12-07T05:13:22.484Z,13.00
2018-12-07T05:14:23.652Z,12.30
2018-12-07T05:15:22.518Z,12.80
2018-12-07T05:16:22.532Z,13.00
2018-12-07T05:17:22.544Z,12.60
2018-12-07T05:18:22.559Z,12.20
2018-12-07T05:19:22.589Z,12.40
2018-12-07T05:20:22.599Z,11.70
2018-12-07T05:21:22.612Z,12.70
2018-12-07T05:22:22.626Z,12.40
2018-12-07T05:23:22.651Z,12.10
2018-12-07T05:24:22.669Z,13.00
2018-12-07T05:25:22.678Z,12.10
2018-12-07T05:26:22.691Z,12.00
2018-12-07T05:27:22.720Z,12.70
2018-12-07T05:28:22.730Z,12.30
2018-12-07T05:29:22.746Z,12.60
2018-12-07T05:30:22.774Z,12.80
2018-12-07T05:31:22.784Z,12.40
2018-12-07T05:32:22.810Z,12.00
2018-12-07T05:33:22.810Z,12.10
2018-12-07T05:34:22.838Z,12.10
2018-12-07T05:35:22.851Z,12.50
2018-12-07T05:36:22.863Z,12.40
2018-12-07T05:37:22.878Z,12.70
2018-12-07T05:38:22.903Z,11.70
2018-12-07T05:39:22.917Z,12.40
2018-12-07T05:40:22.932Z,13.20
2018-12-07T05:41:22.947Z,11.90
2018-12-07T05:42:22.969Z,12.10
2018-12-07T05:43:22.987Z,12.40
2018-12-07T05:44:22.997Z,13.50
2018-12-07T05:45:23.011Z,12.50
2018-12-07T05:46:23.038Z,12.00
2018-12-07T05:47:23.049Z,12.70
2018-12-07T05:48:23.723Z,12.50
2018-12-07T05:49:23.076Z,12.90
2018-12-07T05:50:23.103Z,12.10
2018-12-07T05:51:23.116Z,13.20
2018-12-07T05:52:23.129Z,11.80
2018-12-07T05:53:23.149Z,12.70
2018-12-07T05:54:23.170Z,12.80
2018-12-07T05:55:23.183Z,12.90
2018-12-07T05:56:23.197Z,13.00
2018-12-07T05:57:23.210Z,11.70
2018-12-07T05:58:23.236Z,12.80
2018-12-07T05:59:23.864Z,11.90
2018-12-07T06:00:23.263Z,12.20
2018-12-07T06:01:23.276Z,12.30
2018-12-07T06:02:23.303Z,12.30
2018-12-07T06:03:23.319Z,12.70
2018-12-07T06:04:23.330Z,12.50
2018-12-07T06:05:23.358Z,12.60
2018-12-07T06:06:23.368Z,13.00
2018-12-07T06:07:23.384Z,12.30
2018-12-07T06:08:23.396Z,12.40
2018-12-07T06:09:23.423Z,13.00
2018-12-07T06:10:23.435Z,12.70
2018-12-07T06:11:23.448Z,12.00
2018-12-07T06:12:23.467Z,11.90
2018-12-07T06:13:23.488Z,12.10
2018-12-07T06:14:23.501Z,12.10
2018-12-07T06:15:23.521Z,12.30
2018-12-07T06:16:23.529Z,12.00
2018-12-07T06:17:23.554Z,11.80
2018-12-07T06:18:23.568Z,12.50
2018-12-07T06:19:23.594Z,11.60
2018-12-07T06:20:23.609Z,12.20
2018-12-07T06:21:23.622Z,11.20
2018-12-07T06:22:23.634Z,12.20
2018-12-07T06:23:23.648Z,11.50
2018-12-07T06:24:23.664Z,11.60
2018-12-07T06:25:23.688Z,12.40
2018-12-07T06:26:23.702Z,11.60
2018-12-07T06:27:23.727Z,11.70
2018-12-07T06:28:23.740Z,11.70
2018-12-07T06:29:23.754Z,12.80
2018-12-07T06:30:23.780Z,12.10
2018-12-07T06:31:23.784Z,12.50
2018-12-07T06:32:23.806Z,11.60
2018-12-07T06:33:23.822Z,11.90
2018-12-07T06:34:23.834Z,11.60
2018-12-07T06:35:23.847Z,11.10
2018-12-07T06:36:23.873Z,11.60
2018-12-07T06:37:23.887Z,11.60
2018-12-07T06:38:23.903Z,11.80
2018-12-07T06:39:23.915Z,11.90
2018-12-07T06:40:23.939Z,11.70
2018-12-07T06:41:23.952Z,11.60
2018-12-07T06:42:23.996Z,12.00
2018-12-07T06:43:23.981Z,11.40
2018-12-07T06:44:24.006Z,12.30
2018-12-07T06:45:24.021Z,12.30
2018-12-07T06:46:24.039Z,12.20
2018-12-07T06:47:24.072Z,11.90
2018-12-07T06:48:24.073Z,12.20
2018-12-07T06:49:24.089Z,11.40
2018-12-07T06:50:24.101Z,11.30
2018-12-07T06:51:24.126Z,12.10
2018-12-07T06:52:24.139Z,12.00
2018-12-07T06:53:24.153Z,12.10
2018-12-07T06:54:24.168Z,11.80
2018-12-07T06:55:24.193Z,11.50
2018-12-07T06:56:24.206Z,12.20
2018-12-07T06:57:24.223Z,11.50
2018-12-07T06:58:24.233Z,11.50
2018-12-07T06:59:24.262Z,12.10
2018-12-07T07:00:24.273Z,11.40
2018-12-07T07:01:24.289Z,11.60
2018-12-07T07:02:24.312Z,12.50
2018-12-07T07:03:24.325Z,11.90
2018-12-07T07:04:24.339Z,12.80
2018-12-07T07:05:24.356Z,11.80
2018-12-07T07:06:24.378Z,11.40
2018-12-07T07:07:24.393Z,11.50
2018-12-07T07:08:24.406Z,11.80
2018-12-07T07:09:24.418Z,12.70
2018-12-07T07:10:24.444Z,11.50
2018-12-07T07:11:24.458Z,12.50
2018-12-07T07:12:24.471Z,11.80
2018-12-07T07:13:24.499Z,11.80
2018-12-07T07:14:24.512Z,13.90
2018-12-07T07:15:24.527Z,12.30
2018-12-07T07:16:24.551Z,12.10
2018-12-07T07:17:24.564Z,12.10
2018-12-07T07:18:24.578Z,12.90
2018-12-07T07:19:24.591Z,12.00
2018-12-07T07:20:24.617Z,11.90
2018-12-07T07:21:24.633Z,12.00
2018-12-07T07:22:24.643Z,12.00
2018-12-07T07:23:24.658Z,11.60
2018-12-07T07:24:24.684Z,11.70
2018-12-07T07:25:24.697Z,11.30
2018-12-07T07:26:24.711Z,11.90
2018-12-07T07:27:24.737Z,11.70
2018-12-07T07:28:24.750Z,11.20
2018-12-07T07:29:24.770Z,12.10
2018-12-07T07:30:24.778Z,10.90
2018-12-07T07:31:24.803Z,10.80
2018-12-07T07:32:24.818Z,11.80
2018-12-07T07:33:24.833Z,11.20
2018-12-07T07:34:24.856Z,10.50
2018-12-07T07:35:24.871Z,11.40
2018-12-07T07:36:24.882Z,11.40
2018-12-07T07:37:24.897Z,10.30
2018-12-07T07:38:24.924Z,10.40
2018-12-07T07:39:24.935Z,11.00
2018-12-07T07:40:24.950Z,10.80
2018-12-07T07:41:24.976Z,10.80
2018-12-07T07:42:24.988Z,11.40
2018-12-07T07:43:25.003Z,9.60
2018-12-07T07:44:25.055Z,10.70
2018-12-07T07:45:25.041Z,10.90
2018-12-07T07:46:25.056Z,9.90
2018-12-07T07:47:25.069Z,10.80
2018-12-07T07:48:25.094Z,10.20
2018-12-07T07:49:25.109Z,11.00
2018-12-07T07:50:25.125Z,10.10
2018-12-07T07:51:25.161Z,10.20
2018-12-07T07:52:25.162Z,9.50
2018-12-07T07:53:25.174Z,10.60
2018-12-07T07:54:25.230Z,10.30
2018-12-07T07:55:25.215Z,10.40
2018-12-07T07:56:25.229Z,9.60
2018-12-07T07:57:25.244Z,8.90
2018-12-07T07:58:25.269Z,9.70
2018-12-07T07:59:25.283Z,9.50
2018-12-07T08:00:25.296Z,9.20
2018-12-07T08:01:25.320Z,9.60
2018-12-07T08:02:25.333Z,9.50
2018-12-07T08:03:25.347Z,9.40
2018-12-07T08:04:25.373Z,9.40
2018-12-07T08:05:25.387Z,9.80
2018-12-07T08:06:25.412Z,8.70
2018-12-07T08:07:25.428Z,9.20
2018-12-07T08:08:25.451Z,9.40
2018-12-07T08:09:25.452Z,8.00
2018-12-07T08:10:25.469Z,10.40
2018-12-07T08:11:25.491Z,9.20
2018-12-07T08:12:25.505Z,10.10
2018-12-07T08:13:25.518Z,9.00
2018-12-07T08:14:25.545Z,9.10
2018-12-07T08:15:25.559Z,9.50
2018-12-07T08:16:25.572Z,9.10
2018-12-07T08:17:25.597Z,8.90
2018-12-07T08:18:25.612Z,8.50
2018-12-07T08:19:25.644Z,8.20
2018-12-07T08:20:25.650Z,8.80
2018-12-07T08:21:25.664Z,8.10
2018-12-07T08:22:25.677Z,8.40
2018-12-07T08:23:25.702Z,9.50
2018-12-07T08:24:25.717Z,8.40
2018-12-07T08:25:25.730Z,8.30
2018-12-07T08:26:25.768Z,8.30
2018-12-07T08:27:25.769Z,7.40
2018-12-07T08:28:25.784Z,8.10
2018-12-07T08:29:25.809Z,8.20
2018-12-07T08:30:25.823Z,8.90
2018-12-07T08:31:25.836Z,7.90
2018-12-07T08:32:25.861Z,7.80
2018-12-07T08:33:25.876Z,8.10
2018-12-07T08:34:25.889Z,8.10
2018-12-07T08:35:25.927Z,8.30
2018-12-07T08:36:25.934Z,8.50
2018-12-07T08:37:25.943Z,7.60
2018-12-07T08:38:25.967Z,7.60
2018-12-07T08:39:25.982Z,7.70
2018-12-07T08:40:25.995Z,8.20
2018-12-07T08:41:26.020Z,7.60
2018-12-07T08:42:26.034Z,7.60
2018-12-07T08:43:26.061Z,7.40
2018-12-07T08:44:26.126Z,7.60
2018-12-07T08:45:26.087Z,7.40
2018-12-07T08:46:26.113Z,7.50
2018-12-07T08:47:26.126Z,6.80
2018-12-07T08:48:26.140Z,6.90
2018-12-07T08:49:26.169Z,6.90
2018-12-07T08:50:26.195Z,7.40
2018-12-07T08:51:26.193Z,7.30
2018-12-07T08:52:26.219Z,7.50
2018-12-07T08:53:26.232Z,6.60
2018-12-07T08:54:26.250Z,7.10
2018-12-07T08:55:26.272Z,6.90
2018-12-07T08:56:26.284Z,7.00
2018-12-07T08:57:26.301Z,6.80
2018-12-07T08:58:26.326Z,7.10
2018-12-07T08:59:26.338Z,7.20
2018-12-07T09:00:26.365Z,6.50
2018-12-07T09:01:26.378Z,6.70
2018-12-07T09:02:26.391Z,7.10
2018-12-07T09:03:26.416Z,6.60
2018-12-07T09:04:26.431Z,6.70
2018-12-07T09:05:26.443Z,6.10
2018-12-07T09:06:26.470Z,5.90
2018-12-07T09:07:26.487Z,5.90
2018-12-07T09:08:26.499Z,6.00
2018-12-07T09:09:26.523Z,5.80
2018-12-07T09:10:26.868Z,5.40
2018-12-07T09:11:26.565Z,5.50
2018-12-07T09:12:26.576Z,5.10
2018-12-07T09:13:26.590Z,5.00
2018-12-07T09:14:26.620Z,5.40
2018-12-07T09:15:26.629Z,4.80
2018-12-07T09:16:26.643Z,4.90
2018-12-07T09:17:26.670Z,5.10
2018-12-07T09:18:26.694Z,5.20
2018-12-07T09:19:26.708Z,4.30
2018-12-07T09:20:26.725Z,4.10
2018-12-07T09:21:26.736Z,4.60
2018-12-07T09:22:26.760Z,4.30
2018-12-07T09:23:26.776Z,4.20
2018-12-07T09:24:26.788Z,5.10
2018-12-07T09:25:26.813Z,4.30
2018-12-07T09:26:26.828Z,5.50
2018-12-07T09:27:26.842Z,5.80
2018-12-07T09:28:26.867Z,4.80
2018-12-07T09:29:26.881Z,5.30
2018-12-07T09:30:26.908Z,4.70
2018-12-07T09:31:26.920Z,4.10
2018-12-07T09:32:26.947Z,4.40
2018-12-07T09:33:26.960Z,4.50
2018-12-07T09:34:26.973Z,4.40
2018-12-07T09:35:26.987Z,4.90
2018-12-07T09:36:27.013Z,5.30
2018-12-07T09:37:28.841Z,4.10
2018-12-07T09:38:27.052Z,4.00
2018-12-07T09:39:27.068Z,4.90
2018-12-07T09:40:27.080Z,3.80
2018-12-07T09:41:27.107Z,3.80
2018-12-07T09:42:27.119Z,3.60
2018-12-07T09:43:27.132Z,3.60
2018-12-07T09:44:27.157Z,3.40
2018-12-07T09:45:27.173Z,3.40
2018-12-07T09:46:27.198Z,3.30
2018-12-07T09:47:27.211Z,3.40
2018-12-07T09:48:27.225Z,3.30
2018-12-07T09:49:27.251Z,3.10
2018-12-07T09:50:27.263Z,3.10
2018-12-07T09:51:27.280Z,3.20
2018-12-07T09:52:27.305Z,3.40
2018-12-07T09:53:27.330Z,3.20
2018-12-07T09:54:27.343Z,3.60
2018-12-07T09:55:27.357Z,3.30
2018-12-07T09:56:27.370Z,3.30
2018-12-07T09:57:27.396Z,3.80
2018-12-07T09:58:27.410Z,3.40
2018-12-07T09:59:27.427Z,4.00
2018-12-07T10:00:27.461Z,3.40
2018-12-07T10:01:27.463Z,3.50
2018-12-07T10:02:27.480Z,3.10
2018-12-07T10:03:27.503Z,3.30
2018-12-07T10:04:27.517Z,3.40
2018-12-07T10:05:27.544Z,3.30
2018-12-07T10:06:27.555Z,3.60
2018-12-07T10:07:27.570Z,3.20
2018-12-07T10:08:27.602Z,3.30
2018-12-07T10:09:27.608Z,3.10
2018-12-07T10:10:27.633Z,3.30
2018-12-07T10:11:27.649Z,3.20
2018-12-07T10:12:27.662Z,3.10
2018-12-07T10:13:27.690Z,3.40
2018-12-07T10:14:27.701Z,3.20
2018-12-07T10:15:27.715Z,2.90
2018-12-07T10:16:27.740Z,3.40
2018-12-07T10:17:27.755Z,3.30
2018-12-07T10:18:27.783Z,3.10
2018-12-07T10:19:27.808Z,2.90
2018-12-07T10:20:27.807Z,2.70
2018-12-07T10:21:27.837Z,2.90
2018-12-07T10:22:27.846Z,2.80
2018-12-07T10:23:27.873Z,2.50
2018-12-07T10:24:27.887Z,2.60
2018-12-07T10:25:27.995Z,2.40
2018-12-07T10:26:27.939Z,2.80
2018-12-07T10:27:27.940Z,2.40
2018-12-07T10:28:27.954Z,3.00
2018-12-07T10:29:28.034Z,2.50
2018-12-07T10:30:27.993Z,2.40
2018-12-07T10:31:28.019Z,2.30
2018-12-07T10:32:28.032Z,2.50
2018-12-07T10:33:28.048Z,2.90
2018-12-07T10:34:28.073Z,2.40
2018-12-07T10:35:29.483Z,2.30
2018-12-07T10:36:28.111Z,2.00
2018-12-07T10:37:28.126Z,2.20
2018-12-07T10:38:28.154Z,2.40
2018-12-07T10:39:28.164Z,2.30
2018-12-07T10:40:28.191Z,2.10
2018-12-07T10:41:28.205Z,2.10
2018-12-07T10:42:28.218Z,2.10
2018-12-07T10:43:28.243Z,1.70
2018-12-07T10:44:28.258Z,1.80
2018-12-07T10:45:28.271Z,1.90
2018-12-07T10:46:28.296Z,1.90
2018-12-07T10:47:28.316Z,1.80
2018-12-07T10:48:28.337Z,1.80
2018-12-07T10:49:28.353Z,1.80
2018-12-07T10:50:28.376Z,2.00
2018-12-07T10:51:28.389Z,1.70
2018-12-07T10:52:28.403Z,1.90
2018-12-07T10:53:28.429Z,1.70
2018-12-07T10:54:29.376Z,1.90
2018-12-07T10:55:28.469Z,1.60
2018-12-07T10:56:28.480Z,1.50
2018-12-07T10:57:28.507Z,1.80
2018-12-07T10:58:28.521Z,1.60
2018-12-07T10:59:28.534Z,1.50
2018-12-07T11:00:28.571Z,1.50
2018-12-07T11:01:28.578Z,1.40
2018-12-07T11:02:28.606Z,1.70
2018-12-07T11:03:28.614Z,1.60
2018-12-07T11:04:28.639Z,1.70
2018-12-07T11:05:28.655Z,1.70
2018-12-07T11:06:28.668Z,1.60
2018-12-07T11:07:28.692Z,1.50
2018-12-07T11:08:28.706Z,1.70
2018-12-07T11:09:28.732Z,1.50
2018-12-07T11:10:28.748Z,1.30
2018-12-07T11:11:28.771Z,1.40
2018-12-07T11:12:28.785Z,1.40
2018-12-07T11:13:28.801Z,1.40
2018-12-07T11:14:28.824Z,1.30
2018-12-07T11:15:28.839Z,1.30
2018-12-07T11:16:28.864Z,1.40
2018-12-07T11:17:28.878Z,1.40
2018-12-07T11:18:28.904Z,1.70
2018-12-07T11:19:28.918Z,1.50
2018-12-07T11:20:28.944Z,1.60
2018-12-07T11:21:28.957Z,1.30
2018-12-07T11:22:28.982Z,1.40
2018-12-07T11:23:28.998Z,1.60
2018-12-07T11:24:29.010Z,1.90
2018-12-07T11:25:29.035Z,1.50
2018-12-07T11:26:29.050Z,1.40
2018-12-07T11:27:29.076Z,1.50
2018-12-07T11:28:29.089Z,1.30
2018-12-07T11:29:29.120Z,1.40
2018-12-07T11:30:29.133Z,1.20
2018-12-07T11:31:29.155Z,1.60
2018-12-07T11:32:29.167Z,1.50
2018-12-07T11:33:29.194Z,1.40
2018-12-07T11:34:29.207Z,1.40
2018-12-07T11:35:29.222Z,1.50
2018-12-07T11:36:29.246Z,1.40
2018-12-07T11:37:29.265Z,1.50
2018-12-07T11:38:29.287Z,1.30
2018-12-07T11:39:29.300Z,1.40
2018-12-07T11:40:29.336Z,1.50
2018-12-07T11:41:29.340Z,1.50
2018-12-07T11:42:29.368Z,1.30
2018-12-07T11:43:29.379Z,1.40
2018-12-07T11:44:29.405Z,1.50
2018-12-07T11:45:29.423Z,1.50
2018-12-07T11:46:29.432Z,1.60
2018-12-07T11:47:29.457Z,1.40
2018-12-07T11:48:29.471Z,1.60
2018-12-07T11:49:29.498Z,1.30
2018-12-07T11:50:29.511Z,1.50
2018-12-07T11:51:29.536Z,1.60
2018-12-07T11:52:29.550Z,1.50
2018-12-07T11:53:29.564Z,1.60
2018-12-07T11:54:29.589Z,1.40
2018-12-07T11:55:29.604Z,1.50
2018-12-07T11:56:29.629Z,1.50
2018-12-07T11:57:29.642Z,1.40
2018-12-07T11:58:29.670Z,1.50
2018-12-07T11:59:29.683Z,1.40
2018-12-07T12:00:29.697Z,1.30
2018-12-07T12:01:30.202Z,1.50
2018-12-07T12:02:29.736Z,1.80
2018-12-07T12:03:29.763Z,1.70
2018-12-07T12:04:29.775Z,1.50
2018-12-07T12:05:29.801Z,1.50
2018-12-07T12:06:29.815Z,1.70
2018-12-07T12:07:29.828Z,1.60
2018-12-07T12:08:29.853Z,1.90
2018-12-07T12:09:29.868Z,1.60
2018-12-07T12:10:29.894Z,1.50
2018-12-07T12:11:29.920Z,1.90
2018-12-07T12:12:29.922Z,1.60
2018-12-07T12:13:29.954Z,1.90
2018-12-07T12:14:29.981Z,1.50
2018-12-07T12:15:29.986Z,1.60
2018-12-07T12:16:30.000Z,1.60
2018-12-07T12:17:30.013Z,1.60
2018-12-07T12:18:30.038Z,2.10
2018-12-07T12:19:30.053Z,1.90
2018-12-07T12:20:30.079Z,1.80
2018-12-07T12:21:30.091Z,2.00
2018-12-07T12:22:30.109Z,2.00
2018-12-07T12:23:30.132Z,2.10
2018-12-07T12:24:30.148Z,1.80
2018-12-07T12:25:30.171Z,1.90
2018-12-07T12:26:30.185Z,1.90
2018-12-07T12:27:30.199Z,2.00
2018-12-07T12:28:30.223Z,2.10
2018-12-07T12:29:30.238Z,2.10
2018-12-07T12:30:30.252Z,2.00
2018-12-07T12:31:30.277Z,1.90
2018-12-07T12:32:30.291Z,2.00
2018-12-07T12:33:30.321Z,2.20
2018-12-07T12:34:30.342Z,2.30
2018-12-07T12:35:30.345Z,2.10
2018-12-07T12:36:30.371Z,1.90
2018-12-07T12:37:30.383Z,2.00
2018-12-07T12:38:30.410Z,2.70
2018-12-07T12:39:30.423Z,2.20
2018-12-07T12:40:30.436Z,2.20
2018-12-07T12:41:30.462Z,2.10
2018-12-07T12:42:30.476Z,2.40
2018-12-07T12:43:30.489Z,2.30
2018-12-07T12:44:30.515Z,2.30
2018-12-07T12:45:30.528Z,2.30
2018-12-07T12:46:30.546Z,2.30
2018-12-07T12:47:30.569Z,2.00
2018-12-07T12:48:30.594Z,2.10
2018-12-07T12:49:30.616Z,2.20
2018-12-07T12:50:30.623Z,2.30
2018-12-07T12:51:30.635Z,2.60
2018-12-07T12:52:30.660Z,2.20
2018-12-07T12:53:30.676Z,2.40
2018-12-07T12:54:30.691Z,2.40
2018-12-07T12:55:30.717Z,2.40
2018-12-07T12:56:30.728Z,2.50
2018-12-07T12:57:30.741Z,2.30
2018-12-07T12:58:30.768Z,2.10
2018-12-07T12:59:30.780Z,2.80
2018-12-07T13:00:30.806Z,2.50
2018-12-07T13:01:30.820Z,2.80
2018-12-07T13:02:30.833Z,2.40
2018-12-07T13:03:30.859Z,2.60
2018-12-07T13:04:30.872Z,2.40
2018-12-07T13:05:30.887Z,2.70
2018-12-07T13:06:30.912Z,2.40
2018-12-07T13:07:30.926Z,2.80
2018-12-07T13:08:30.938Z,2.40